Time;durP1;ratioP1;P1;durP2;ratioP2;P2;SDS_P1;SDS_P2;PMS_P1;PMS_P2;Temp;Humidity;BMP_temperature;BMP_pressure;BME280_temperature;BME280_humidity;BME280_pressure;Samples;Min_cycle;Max_cycle;Signal;HPM_P1;HPM_P2
2022/05/28 00:01:26;;;;;;;12.40;4.20;;;;;;;12.70;61.77;102169.06;4952829;28;20078;-67
2022/05/28 00:03:53;;;;;;;11.50;4.22;;;;;;;12.66;61.93;102164.59;4949924;28;20027;-68
2022/05/28 00:06:21;;;;;;;14.57;3.92;;;;;;;12.62;62.01;102163.56;4952876;28;20027;-67
2022/05/28 00:08:47;;;;;;;12.95;4.38;;;;;;;12.63;62.24;102161.84;4950786;28;20459;-67
2022/05/28 00:11:18;;;;;;;12.27;4.15;;;;;;;12.62;62.52;102157.47;4952618;28;20106;-67
2022/05/28 00:13:43;;;;;;;12.20;4.45;;;;;;;12.58;61.68;102160.81;4952471;28;20039;-67
2022/05/28 00:16:09;;;;;;;11.07;4.30;;;;;;;12.60;62.20;102151.28;4951773;28;20019;-67
2022/05/28 00:18:37;;;;;;;14.45;3.95;;;;;;;12.60;62.23;102152.19;4951912;28;20542;-67
2022/05/28 00:21:02;;;;;;;12.48;4.60;;;;;;;12.59;62.37;102150.41;4951880;28;20487;-67
2022/05/28 00:23:28;;;;;;;10.48;4.20;;;;;;;12.59;62.61;102147.78;4952169;28;20368;-67
2022/05/28 00:25:53;;;;;;;14.10;4.72;;;;;;;12.58;62.32;102146.00;4952596;28;20487;-67
2022/05/28 00:28:21;;;;;;;11.90;4.45;;;;;;;12.56;62.27;102142.44;4951834;28;20035;-74
2022/05/28 00:30:46;;;;;;;12.23;4.82;;;;;;;12.51;62.46;102137.06;4952633;28;20051;-74
2022/05/28 00:33:12;;;;;;;15.23;4.25;;;;;;;12.50;62.39;102144.84;4946624;28;20067;-74
2022/05/28 00:35:37;;;;;;;12.68;4.50;;;;;;;12.50;63.12;102139.63;4948049;28;20498;-74
2022/05/28 00:38:02;;;;;;;11.75;4.32;;;;;;;12.46;62.87;102140.34;4950657;28;20027;-74
2022/05/28 00:40:27;;;;;;;17.65;5.40;;;;;;;12.50;63.25;102137.00;4950864;28;20033;-74
2022/05/28 00:43:01;;;;;;;14.90;4.57;;;;;;;12.45;64.45;102143.78;4951294;28;20399;-74
2022/05/28 00:45:28;;;;;;;14.13;4.30;;;;;;;12.47;63.65;102139.47;4950615;28;20065;-74
2022/05/28 00:47:56;;;;;;;9.45;4.60;;;;;;;12.48;63.84;102144.78;4949660;28;20114;-74
2022/05/28 00:50:22;;;;;;;17.10;5.40;;;;;;;12.47;63.59;102139.47;4952021;28;20046;-74
2022/05/28 00:52:48;;;;;;;13.65;5.07;;;;;;;12.47;63.60;102137.78;4951720;28;20403;-74
2022/05/28 00:55:15;;;;;;;15.65;5.68;;;;;;;12.45;64.46;102138.53;4944498;28;20023;-74
2022/05/28 00:57:42;;;;;;;12.65;4.78;;;;;;;12.42;64.17;102141.94;4951039;28;20038;-74
2022/05/28 01:00:12;;;;;;;17.60;5.18;;;;;;;12.39;63.76;102133.09;4949861;28;20031;-74
2022/05/28 01:02:55;;;;;;;14.18;5.03;;;;;;;12.44;63.89;102131.53;4949044;28;20407;-74
2022/05/28 01:05:42;;;;;;;16.98;4.75;;;;;;;12.50;64.11;102129.16;4952725;29;20441;-75
2022/05/28 01:08:15;;;;;;;19.25;4.63;;;;;;;12.44;63.55;102124.59;4954013;28;20506;-75
2022/05/28 01:11:02;;;;;;;17.27;5.93;;;;;;;12.45;63.75;102121.13;4945196;29;20127;-74
2022/05/28 01:13:42;;;;;;;15.40;4.55;;;;;;;12.41;64.02;102127.09;4954130;29;20027;-74
2022/05/28 01:16:12;;;;;;;14.68;5.07;;;;;;;12.41;64.13;102123.56;4954184;28;20031;-74
2022/05/28 01:18:50;;;;;;;13.88;4.85;;;;;;;12.44;64.27;102121.97;4953827;28;21419;-74
2022/05/28 01:21:30;;;;;;;18.43;5.20;;;;;;;12.43;64.05;102120.19;4954302;29;20031;-74
2022/05/28 01:24:13;;;;;;;13.40;4.90;;;;;;;12.39;63.86;102115.69;4952353;28;20102;-74
2022/05/28 01:26:59;;;;;;;14.48;5.18;;;;;;;12.37;63.97;102119.97;4949514;29;20515;-73
2022/05/28 01:29:31;;;;;;;13.88;5.47;;;;;;;12.31;64.15;102115.41;4948637;29;20035;-74
2022/05/28 01:31:58;;;;;;;13.48;5.30;;;;;;;12.29;64.33;102113.56;4950698;28;20027;-74
2022/05/28 01:34:25;;;;;;;15.82;5.20;;;;;;;12.24;64.60;102113.41;4950282;28;20066;-74
2022/05/28 01:36:50;;;;;;;14.10;5.60;;;;;;;12.20;64.75;102113.25;4954476;28;20043;-74
2022/05/28 01:39:18;;;;;;;13.75;4.72;;;;;;;12.16;65.02;102107.88;4953261;28;20034;-74
2022/05/28 01:41:45;;;;;;;15.60;5.43;;;;;;;12.22;65.24;102107.22;4950382;28;20031;-74
2022/05/28 01:44:13;;;;;;;18.35;5.75;;;;;;;12.24;65.27;102110.78;4953913;28;20523;-74
2022/05/28 01:46:40;;;;;;;12.25;5.20;;;;;;;12.26;64.79;102116.06;4954116;28;20038;-74
2022/05/28 01:49:09;;;;;;;14.48;5.72;;;;;;;12.17;64.89;102104.44;4955489;28;20035;-74
2022/05/28 01:51:42;;;;;;;14.35;5.57;;;;;;;12.20;64.79;102111.50;4954890;28;20082;-74
2022/05/28 01:54:11;;;;;;;13.52;5.50;;;;;;;12.16;64.90;102114.81;4950537;28;20043;-74
2022/05/28 01:56:43;;;;;;;14.00;5.22;;;;;;;12.13;65.27;102114.72;4954411;28;20565;-74
2022/05/28 01:59:11;;;;;;;15.07;5.82;;;;;;;12.09;65.53;102113.69;4954167;28;20035;-74
2022/05/28 02:01:37;;;;;;;17.23;5.82;;;;;;;12.06;65.37;102118.81;4948331;28;20030;-74
2022/05/28 02:04:04;;;;;;;16.23;5.57;;;;;;;12.02;65.79;102121.25;4952945;28;20031;-74
2022/05/28 02:06:30;;;;;;;15.30;5.40;;;;;;;11.99;65.70;102119.41;4950216;28;20106;-73
2022/05/28 02:08:55;;;;;;;15.30;4.95;;;;;;;11.96;65.91;102112.38;4955445;29;20029;-74
2022/05/28 02:11:45;;;;;;;13.77;5.55;;;;;;;12.00;65.76;102108.13;4952683;29;20486;-74
2022/05/28 02:14:30;;;;;;;;;;;;;;;12.12;64.69;102107.69;4951396;28;20035;-73
2022/05/28 02:17:13;;;;;;;13.90;4.93;;;;;;;12.02;66.12;102114.31;4947524;29;19918;-74
2022/05/28 02:19:58;;;;;;;13.50;5.30;;;;;;;11.98;66.09;102118.53;4953363;28;20034;-73
2022/05/28 02:22:38;;;;;;;15.85;5.40;;;;;;;11.92;66.53;102118.25;4952646;29;20035;-73
2022/05/28 02:25:13;;;;;;;13.05;4.93;;;;;;;11.88;66.87;102113.75;4950266;28;20039;-73
2022/05/28 02:27:41;;;;;;;16.08;4.68;;;;;;;11.87;67.30;102109.34;4954085;28;20090;-73
2022/05/28 02:30:09;;;;;;;11.65;4.50;;;;;;;11.85;67.26;102108.41;4954559;29;20127;-73
2022/05/28 02:32:34;;;;;;;17.23;5.50;;;;;;;11.86;67.54;102101.47;4950614;28;20163;-74
2022/05/28 02:35:00;;;;;;;16.23;4.97;;;;;;;11.80;67.15;102103.00;4950249;28;20114;-73
2022/05/28 02:37:27;;;;;;;19.35;5.72;;;;;;;11.80;67.43;102104.72;4952084;28;20082;-73
2022/05/28 02:39:52;;;;;;;14.60;5.07;;;;;;;11.79;67.23;102103.84;4951791;28;20039;-73
2022/05/28 02:42:17;;;;;;;14.55;5.60;;;;;;;11.80;67.14;102103.00;4953144;28;20054;-74
2022/05/28 02:44:43;;;;;;;16.58;5.70;;;;;;;11.78;67.45;102098.56;4954587;28;20483;-73
2022/05/28 02:47:09;;;;;;;17.20;5.60;;;;;;;11.79;67.60;102102.97;4948242;29;20055;-74
2022/05/28 02:49:34;;;;;;;12.93;5.38;;;;;;;11.78;67.62;102095.94;4954526;28;20038;-74
2022/05/28 02:52:01;;;;;;;15.63;5.53;;;;;;;11.75;67.54;102096.72;4953147;28;20059;-74
2022/05/28 02:54:27;;;;;;;14.73;5.32;;;;;;;11.73;67.60;102089.63;4952021;28;20035;-74
2022/05/28 02:56:52;;;;;;;17.73;5.63;;;;;;;11.72;67.59;102086.16;4948216;28;20082;-73
2022/05/28 02:59:18;;;;;;;16.55;5.40;;;;;;;11.71;67.82;102086.09;4952029;28;20035;-74
2022/05/28 03:01:43;;;;;;;18.15;5.68;;;;;;;11.72;67.86;102082.66;4945551;28;20094;-74
2022/05/28 03:04:09;;;;;;;13.38;4.68;;;;;;;11.72;68.42;102080.06;4952929;28;20031;-74
2022/05/28 03:06:35;;;;;;;13.75;5.93;;;;;;;11.72;68.31;102082.66;4953821;28;20030;-73
2022/05/28 03:09:02;;;;;;;16.55;5.47;;;;;;;11.72;68.40;102083.53;4953849;29;20142;-73
2022/05/28 03:11:27;;;;;;;14.98;5.50;;;;;;;11.75;68.25;102085.38;4952079;28;20046;-74
2022/05/28 03:13:53;;;;;;;17.02;5.88;;;;;;;11.73;68.46;102082.72;4951770;28;20483;-74
2022/05/28 03:16:18;;;;;;;14.27;5.13;;;;;;;11.68;68.65;102080.75;4953883;28;20067;-73
2022/05/28 03:18:43;;;;;;;14.57;5.07;;;;;;;11.69;68.63;102080.81;4952902;28;20113;-73
2022/05/28 03:21:09;;;;;;;14.10;5.22;;;;;;;11.68;68.54;102086.84;4952816;28;20031;-74
2022/05/28 03:23:34;;;;;;;14.50;5.68;;;;;;;11.66;68.51;102088.53;4951287;28;20097;-73
2022/05/28 03:26:20;;;;;;;14.27;5.28;;;;;;;11.69;68.34;102088.66;4952471;28;20390;-74
2022/05/28 03:28:47;;;;;;;19.27;6.43;;;;;;;11.62;68.66;102092.72;4953030;28;20038;-73
2022/05/28 03:31:12;;;;;;;16.48;5.60;;;;;;;11.57;68.86;102091.66;4953626;28;20491;-73
2022/05/28 03:33:38;;;;;;;17.33;5.05;;;;;;;11.56;68.92;102089.88;4950451;28;20050;-73
2022/05/28 03:36:04;;;;;;;16.10;5.28;;;;;;;11.52;69.30;102094.94;4950603;28;20035;-74
2022/05/28 03:38:30;;;;;;;15.50;5.25;;;;;;;11.52;69.28;102094.94;4952403;28;20171;-73
2022/05/28 03:40:55;;;;;;;16.55;4.88;;;;;;;11.52;69.70;102089.72;4949954;28;20030;-73
2022/05/28 03:43:20;;;;;;;12.20;4.75;;;;;;;11.48;69.50;102091.28;4952345;28;20030;-74
2022/05/28 03:45:46;;;;;;;15.30;5.50;;;;;;;11.46;69.89;102096.44;4951179;28;20034;-73
2022/05/28 03:48:11;;;;;;;13.20;4.82;;;;;;;11.45;69.81;102096.38;4948757;28;20027;-73
2022/05/28 03:50:37;;;;;;;12.65;4.93;;;;;;;11.42;70.17;102104.09;4950989;28;20030;-73
2022/05/28 03:53:03;;;;;;;14.05;5.55;;;;;;;11.37;70.57;102103.00;4951413;28;20048;-74
2022/05/28 03:55:29;;;;;;;11.80;4.90;;;;;;;11.32;70.16;102108.03;4954535;28;20030;-74
2022/05/28 03:57:54;;;;;;;15.25;5.00;;;;;;;11.30;70.42;102107.97;4944252;28;20031;-74
2022/05/28 04:00:20;;;;;;;14.50;4.90;;;;;;;11.30;70.68;102107.09;4952746;29;20027;-74
2022/05/28 04:02:46;;;;;;;17.65;5.38;;;;;;;11.24;70.92;102110.34;4952108;28;20490;-74
2022/05/28 04:05:11;;;;;;;11.77;4.45;;;;;;;11.20;71.18;102104.94;4948581;28;20042;-74
2022/05/28 04:07:37;;;;;;;11.98;4.63;;;;;;;11.20;71.39;102110.16;4945041;28;20031;-74
2022/05/28 04:10:05;;;;;;;17.92;4.70;;;;;;;11.17;71.67;102104.81;4945422;28;20113;-75
2022/05/28 04:12:30;;;;;;;14.20;4.93;;;;;;;11.16;72.09;102109.13;4951299;28;20027;-75
2022/05/28 04:14:56;;;;;;;11.82;4.68;;;;;;;11.18;72.08;102107.50;4950601;28;20042;-74
2022/05/28 04:17:22;;;;;;;15.57;5.03;;;;;;;11.21;72.07;102114.53;4951066;29;20039;-74
2022/05/28 04:19:47;;;;;;;15.88;5.22;;;;;;;11.21;72.47;102112.84;4948314;28;20042;-74
2022/05/28 04:22:12;;;;;;;18.77;5.00;;;;;;;11.21;72.66;102118.06;4949956;28;20150;-74
2022/05/28 04:24:37;;;;;;;17.17;5.55;;;;;;;11.22;72.72;102119.81;4951238;28;20033;-74
2022/05/28 04:27:03;;;;;;;15.48;4.93;;;;;;;11.24;72.90;102123.41;4947774;29;20038;-74
2022/05/28 04:29:28;;;;;;;14.68;5.07;;;;;;;11.27;73.63;102118.31;4948149;28;20023;-74
2022/05/28 04:31:54;;;;;;;16.90;5.05;;;;;;;11.28;73.47;102121.78;4950874;28;20159;-74
2022/05/28 04:34:19;;;;;;;22.98;6.05;;;;;;;11.31;73.43;102124.53;4946918;28;20054;-74
2022/05/28 04:36:44;;;;;;;13.75;4.97;;;;;;;11.35;73.14;102129.03;4952182;28;20117;-74
2022/05/28 04:39:10;;;;;;;13.77;4.72;;;;;;;11.37;73.14;102126.50;4946253;28;20038;-74
2022/05/28 04:41:35;;;;;;;13.52;5.18;;;;;;;11.39;73.19;102122.25;4948730;28;20102;-75
2022/05/28 04:44:00;;;;;;;15.20;5.20;;;;;;;11.39;73.74;102133.56;4952527;28;20030;-74
2022/05/28 04:46:25;;;;;;;16.42;5.28;;;;;;;11.41;73.65;102126.72;4948325;28;20402;-74
2022/05/28 04:48:51;;;;;;;13.52;5.30;;;;;;;11.40;73.94;102130.13;4948713;28;20503;-74
2022/05/28 04:51:16;;;;;;;15.02;5.13;;;;;;;11.42;74.24;102130.19;4952472;28;20030;-74
2022/05/28 04:53:41;;;;;;;20.60;5.47;;;;;;;11.42;74.11;102127.59;4951152;28;20027;-74
2022/05/28 04:56:07;;;;;;;15.50;5.25;;;;;;;11.44;74.43;102136.34;4943176;28;20027;-74
2022/05/28 04:58:33;;;;;;;17.80;5.07;;;;;;;11.41;74.84;102134.53;4950145;28;20023;-74
2022/05/28 05:00:58;;;;;;;16.77;5.10;;;;;;;11.44;74.94;102131.13;4951934;28;20033;-75
2022/05/28 05:03:24;;;;;;;15.73;5.90;;;;;;;11.46;75.04;102134.72;4951452;28;20550;-74
2022/05/28 05:05:49;;;;;;;21.45;6.03;;;;;;;11.48;74.77;102143.50;4952728;28;20394;-74
2022/05/28 05:08:14;;;;;;;16.25;6.28;;;;;;;11.52;75.39;102145.41;4950032;29;20026;-74
2022/05/28 05:10:40;;;;;;;21.80;6.93;;;;;;;11.56;75.07;102147.31;4951375;28;20046;-75
2022/05/28 05:13:05;;;;;;;18.00;6.25;;;;;;;11.57;75.27;102154.31;4952120;28;20494;-74
2022/05/28 05:15:31;;;;;;;14.70;5.78;;;;;;;11.59;75.42;102147.44;4951668;28;20035;-74
2022/05/28 05:17:57;;;;;;;18.58;5.97;;;;;;;11.59;76.09;102149.16;4951177;28;20044;-74
2022/05/28 05:20:22;;;;;;;17.63;5.85;;;;;;;11.61;76.16;102145.75;4949871;28;20039;-74
2022/05/28 05:22:47;;;;;;;17.63;5.05;;;;;;;11.65;76.07;102147.66;4950941;28;20118;-74
2022/05/28 05:25:14;;;;;;;17.60;4.43;;;;;;;11.71;75.44;102156.59;4950295;28;20494;-75
2022/05/28 05:27:41;;;;;;;17.75;4.13;;;;;;;11.73;75.83;102144.47;4952311;28;20035;-74
2022/05/28 05:30:07;;;;;;;14.00;3.40;;;;;;;11.77;75.74;102152.47;4951070;28;20498;-75
2022/05/28 05:32:32;;;;;;;11.05;3.03;;;;;;;11.82;74.56;102150.97;4951944;28;20058;-75
2022/05/28 05:34:57;;;;;;;15.73;3.03;;;;;;;11.89;74.26;102152.09;4948032;28;20082;-74
2022/05/28 05:37:23;;;;;;;17.25;3.15;;;;;;;11.93;73.60;102151.41;4950690;28;20027;-75
2022/05/28 05:39:48;;;;;;;17.00;2.97;;;;;;;11.99;74.00;102155.97;4950571;28;20058;-74
2022/05/28 05:42:13;;;;;;;11.93;2.78;;;;;;;12.02;73.74;102156.13;4951791;28;20118;-74
2022/05/28 05:44:39;;;;;;;10.07;2.60;;;;;;;12.05;73.54;102157.94;4950053;28;20173;-75
2022/05/28 05:47:06;;;;;;;9.43;2.42;;;;;;;12.10;72.61;102156.41;4950999;28;20039;-74
2022/05/28 05:49:32;;;;;;;13.10;2.40;;;;;;;12.13;72.86;102156.53;4952985;28;20583;-69
2022/05/28 05:51:58;;;;;;;10.93;2.38;;;;;;;12.16;72.87;102167.09;4954575;28;20410;-69
2022/05/28 05:54:26;;;;;;;14.38;2.80;;;;;;;12.23;72.15;102163.88;4954531;28;20027;-69
2022/05/28 05:56:53;;;;;;;8.70;2.40;;;;;;;12.32;71.92;102161.59;4954315;29;20557;-70
2022/05/28 05:59:19;;;;;;;13.45;2.42;;;;;;;12.43;71.37;102161.13;4955222;28;20086;-70
2022/05/28 06:01:44;;;;;;;7.72;2.80;;;;;;;12.51;70.96;102159.69;4954122;28;20031;-69
2022/05/28 06:04:09;;;;;;;12.93;2.38;;;;;;;12.61;70.56;102161.78;4955149;28;20106;-69
2022/05/28 06:06:34;;;;;;;10.07;2.30;;;;;;;12.67;70.71;102166.34;4953592;28;20046;-69
2022/05/28 06:09:00;;;;;;;9.05;2.30;;;;;;;12.75;70.07;102161.41;4955268;28;20034;-69
2022/05/28 06:11:26;;;;;;;12.15;2.20;;;;;;;12.82;69.78;102169.53;4952119;28;20506;-69
2022/05/28 06:13:51;;;;;;;14.10;2.53;;;;;;;12.90;69.15;102175.03;4952961;28;20023;-69
2022/05/28 06:16:17;;;;;;;13.65;2.20;;;;;;;12.96;68.97;102175.25;4950918;28;20024;-69
2022/05/28 06:18:43;;;;;;;9.65;2.00;;;;;;;13.03;68.51;102165.88;4953361;28;20039;-69
2022/05/28 06:21:09;;;;;;;12.38;2.40;;;;;;;13.08;67.47;102166.94;4954088;28;20034;-69
2022/05/28 06:23:34;;;;;;;8.40;2.75;;;;;;;13.13;68.59;102175.81;4953619;28;20038;-69
2022/05/28 06:26:02;;;;;;;12.27;2.60;;;;;;;13.17;67.81;102175.09;4952970;28;20089;-69
2022/05/28 06:28:28;;;;;;;9.77;3.03;;;;;;;13.24;68.18;102178.84;4954298;28;20023;-65
2022/05/28 06:30:58;;;;;;;9.70;2.50;;;;;;;13.29;68.35;102179.88;4954724;28;20082;-65
2022/05/28 06:33:23;;;;;;;17.15;2.80;;;;;;;13.35;66.30;102179.22;4952886;28;20051;-65
2022/05/28 06:35:48;;;;;;;6.55;2.45;;;;;;;13.38;67.26;102185.47;4953760;28;20505;-65
2022/05/28 06:38:14;;;;;;;11.75;2.25;;;;;;;13.45;66.57;102188.28;4940553;28;20038;-65
2022/05/28 06:40:39;;;;;;;9.52;2.40;;;;;;;13.49;65.39;102182.31;4953629;28;20476;-65
2022/05/28 06:43:04;;;;;;;16.15;2.90;;;;;;;13.54;65.20;102192.09;4954325;28;20027;-65
2022/05/28 06:45:30;;;;;;;12.68;2.45;;;;;;;13.57;64.81;102186.97;4951884;28;20352;-65
2022/05/28 06:47:55;;;;;;;10.52;2.60;;;;;;;13.61;64.51;102182.69;4951817;28;20418;-65
2022/05/28 06:53:08;;;;;;;13.48;2.78;;;;;;;13.67;64.41;102190.78;4949493;28;20075;-75
2022/05/28 06:55:37;;;;;;;12.18;3.20;;;;;;;13.71;64.12;102192.63;4950298;28;20030;-74
2022/05/28 06:58:04;;;;;;;14.18;3.38;;;;;;;13.77;64.76;102193.69;4953834;28;20031;-76
2022/05/28 07:00:29;;;;;;;15.30;3.20;;;;;;;13.83;66.05;102193.88;4952614;28;20078;-76
2022/05/28 07:02:55;;;;;;;11.50;4.18;;;;;;;13.87;64.65;102196.63;4954153;28;20517;-76
2022/05/28 07:05:20;;;;;;;11.68;3.72;;;;;;;13.92;64.35;102194.19;4952413;28;20118;-75
2022/05/28 07:07:45;;;;;;;15.65;3.55;;;;;;;13.97;65.37;102186.44;4954096;28;20031;-75
2022/05/28 07:10:11;;;;;;;14.68;3.95;;;;;;;14.01;64.76;102194.44;4953457;28;20085;-76
2022/05/28 07:12:37;;;;;;;11.27;3.78;;;;;;;14.04;64.86;102194.53;4953868;28;20035;-75
2022/05/28 07:15:02;;;;;;;12.60;4.45;;;;;;;14.11;65.84;102186.84;4953042;28;20074;-76
2022/05/28 07:17:27;;;;;;;13.57;3.75;;;;;;;14.16;66.38;102191.41;4952445;29;20027;-75
2022/05/28 07:19:53;;;;;;;11.70;3.78;;;;;;;14.23;65.52;102193.38;4953658;28;20502;-75
2022/05/28 07:22:18;;;;;;;12.48;3.75;;;;;;;14.29;65.32;102194.41;4953076;28;20144;-75
2022/05/28 07:24:43;;;;;;;13.75;3.45;;;;;;;14.30;63.93;102202.31;4953225;28;20038;-76
2022/05/28 07:27:12;;;;;;;10.65;3.92;;;;;;;14.31;62.85;102198.88;4953158;28;20074;-76
2022/05/28 07:29:39;;;;;;;11.95;4.00;;;;;;;14.34;63.09;102198.03;4951955;28;20082;-75
2022/05/28 07:32:05;;;;;;;12.63;3.88;;;;;;;14.35;62.77;102191.97;4953533;28;20027;-75
2022/05/28 07:34:31;;;;;;;17.45;4.07;;;;;;;14.39;62.75;102196.47;4951679;28;20426;-76
2022/05/28 07:36:56;;;;;;;14.25;4.57;;;;;;;14.40;62.01;102199.13;4953427;28;20078;-76
2022/05/28 07:39:21;;;;;;;11.27;4.50;;;;;;;14.39;61.29;102193.84;4953565;28;20042;-75
2022/05/28 07:41:48;;;;;;;13.80;4.28;;;;;;;14.36;61.77;102197.25;4951507;28;20030;-74
2022/05/28 07:44:13;;;;;;;13.60;4.10;;;;;;;14.35;63.12;102199.81;4950667;28;20023;-71
2022/05/28 07:46:39;;;;;;;11.57;3.90;;;;;;;14.32;61.56;102198.00;4948687;28;20050;-69
2022/05/28 07:49:05;;;;;;;15.43;4.50;;;;;;;14.27;61.97;102199.63;4950478;28;20046;-69
2022/05/28 07:51:30;;;;;;;13.73;4.38;;;;;;;14.24;61.54;102194.28;4951694;28;20106;-70
2022/05/28 07:53:57;;;;;;;11.68;4.00;;;;;;;14.19;62.10;102198.47;4952980;29;20122;-69
2022/05/28 07:56:22;;;;;;;11.85;4.05;;;;;;;14.18;62.15;102194.97;4951461;28;20113;-69
2022/05/28 07:58:50;;;;;;;13.18;4.10;;;;;;;14.22;62.33;102193.31;4950727;28;20529;-69
2022/05/28 08:01:25;;;;;;;12.82;3.83;;;;;;;14.30;63.11;102198.81;4950915;28;20147;-69
2022/05/28 08:03:51;;;;;;;10.63;3.28;;;;;;;14.30;61.10;102202.31;4951330;28;20282;-70
2022/05/28 08:06:18;;;;;;;10.10;3.38;;;;;;;14.28;61.20;102201.41;4949571;28;20031;-69
2022/05/28 08:08:43;;;;;;;14.35;3.80;;;;;;;14.25;60.48;102198.66;4950717;28;20031;-69
2022/05/28 08:11:10;;;;;;;16.63;3.90;;;;;;;14.26;61.89;102201.34;4951549;28;20506;-69
2022/05/28 08:13:35;;;;;;;12.73;3.85;;;;;;;14.32;63.04;102200.63;4952816;28;20101;-69
2022/05/28 08:16:01;;;;;;;11.38;3.63;;;;;;;14.41;61.43;102189.50;4952267;28;20423;-69
2022/05/28 08:18:26;;;;;;;11.77;3.15;;;;;;;14.47;60.88;102183.56;4952569;28;20035;-70
2022/05/28 08:23:38;;;;;;;12.20;2.85;;;;;;;14.60;58.88;102181.34;4952924;29;20573;-69
2022/05/28 08:26:04;;;;;;;13.35;3.33;;;;;;;14.69;61.01;102175.50;4952017;28;20015;-70
2022/05/28 08:28:29;;;;;;;12.75;3.00;;;;;;;14.77;59.19;102183.56;4952109;28;20035;-69
2022/05/28 08:30:54;;;;;;;10.40;3.17;;;;;;;14.88;61.24;102178.66;4951741;28;20026;-70
2022/05/28 08:33:20;;;;;;;14.95;3.28;;;;;;;14.95;60.12;102177.97;4952294;28;20130;-69
2022/05/28 08:35:46;;;;;;;14.38;3.40;;;;;;;15.03;57.49;102179.03;4950849;28;20034;-69
2022/05/28 08:38:15;;;;;;;13.63;3.67;;;;;;;15.15;59.29;102177.59;4951687;28;20105;-69
2022/05/28 08:41:06;;;;;;;12.23;3.30;;;;;;;15.23;60.25;102187.44;4951606;28;20081;-69
2022/05/28 08:43:37;;;;;;;9.25;3.58;;;;;;;15.25;58.17;102182.22;4949241;29;20302;-69
2022/05/28 08:46:03;;;;;;;13.25;3.47;;;;;;;15.20;57.78;102176.88;4951208;28;20042;-69
2022/05/28 08:48:52;;;;;;;13.25;3.45;;;;;;;15.17;59.31;102184.66;4952254;28;20435;-69
2022/05/28 08:51:48;;;;;;;10.77;3.63;;;;;;;15.10;59.32;102183.59;4951824;29;20028;-69
2022/05/28 08:54:13;;;;;;;12.85;3.63;;;;;;;15.05;58.55;102185.22;4952164;29;20035;-69
2022/05/28 08:56:40;;;;;;;11.33;3.30;;;;;;;15.00;58.19;102194.72;4952348;28;20376;-69
2022/05/28 08:59:19;;;;;;;8.55;4.03;;;;;;;15.01;59.23;102188.63;4951886;28;20031;-69
2022/05/28 09:01:45;;;;;;;11.23;3.30;;;;;;;15.02;58.74;102190.41;4945396;28;20038;-69
2022/05/28 09:04:15;;;;;;;13.98;3.67;;;;;;;15.07;58.45;102196.66;4951686;28;20031;-69
2022/05/28 09:06:47;;;;;;;13.40;3.50;;;;;;;15.16;59.31;102193.38;4939521;29;20130;-69
2022/05/28 09:09:14;;;;;;;17.70;3.70;;;;;;;15.24;59.57;102188.34;4951503;28;20574;-69
2022/05/28 09:11:59;;;;;;;10.68;2.75;;;;;;;15.30;56.43;102181.50;4951271;28;20031;-69
2022/05/28 09:14:30;;;;;;;9.48;2.83;;;;;;;15.40;57.43;102182.63;4951049;28;20019;-70
2022/05/28 09:17:04;;;;;;;10.38;2.50;;;;;;;15.53;57.79;102181.19;4951740;28;20036;-69
2022/05/28 09:19:39;;;;;;;10.45;3.00;;;;;;;15.57;56.73;102179.53;4951012;28;21316;-69
2022/05/28 09:22:04;;;;;;;11.23;3.25;;;;;;;15.54;54.14;102182.97;4950567;28;20082;-69
2022/05/28 09:24:31;;;;;;;15.52;3.33;;;;;;;15.61;55.98;102181.38;4953756;28;20644;-68
2022/05/28 09:27:24;;;;;;;9.30;2.92;;;;;;;15.68;57.33;102178.03;4946514;28;20095;-69
2022/05/28 09:30:26;;;;;;;7.18;2.50;;;;;;;15.70;55.44;102165.84;4942501;28;20026;-69
2022/05/28 09:33:06;;;;;;;11.80;2.65;;;;;;;15.71;55.64;102175.50;4954647;28;20089;-69
2022/05/28 09:35:57;;;;;;;13.02;2.67;;;;;;;15.73;55.83;102170.25;4955286;28;20031;-68
2022/05/28 09:38:47;;;;;;;12.80;2.72;;;;;;;15.74;53.14;102170.34;4955047;28;20545;-68
2022/05/28 09:41:44;;;;;;;9.30;2.50;;;;;;;15.76;55.13;102168.63;4955287;29;20430;-73
2022/05/28 09:44:30;;;;;;;9.45;2.88;;;;;;;15.81;54.83;102169.66;4951195;29;20114;-74
2022/05/28 09:47:06;;;;;;;11.48;3.20;;;;;;;15.94;55.67;102165.53;4953755;28;20023;-75
2022/05/28 09:49:31;;;;;;;9.77;2.97;;;;;;;16.01;55.27;102166.59;4953165;28;20027;-74
2022/05/28 09:52:06;;;;;;;8.43;2.92;;;;;;;16.09;53.41;102162.38;4954562;28;20026;-74
2022/05/28 09:54:35;;;;;;;14.13;3.60;;;;;;;16.07;54.66;102174.59;4954469;28;20034;-74
2022/05/28 09:57:09;;;;;;;13.80;3.00;;;;;;;16.13;55.21;102165.97;4951482;29;20027;-74
2022/05/28 09:59:37;;;;;;;10.80;3.20;;;;;;;16.19;54.53;102158.19;4952558;28;20101;-75
2022/05/28 10:02:08;;;;;;;8.73;2.90;;;;;;;16.29;54.81;102157.56;4952824;29;20034;-75
2022/05/28 10:04:49;;;;;;;12.93;3.08;;;;;;;16.29;55.43;102167.19;4954474;28;20294;-74
2022/05/28 10:07:14;;;;;;;15.52;3.08;;;;;;;16.23;53.30;102156.53;4953077;28;20119;-75
2022/05/28 10:09:53;;;;;;;13.40;2.95;;;;;;;16.17;53.90;102168.69;4955638;28;20097;-75
2022/05/28 10:12:36;;;;;;;7.45;2.97;;;;;;;16.12;55.32;102159.81;4954383;28;20031;-75
2022/05/28 10:15:20;;;;;;;11.13;2.58;;;;;;;16.13;54.92;102155.44;4953883;28;20034;-76
2022/05/28 10:18:01;;;;;;;13.68;2.60;;;;;;;16.20;56.78;102161.72;4954449;28;20031;-75
2022/05/28 10:20:27;;;;;;;18.05;3.10;;;;;;;16.33;56.70;102154.13;4953883;28;20063;-75
2022/05/28 10:22:56;;;;;;;11.65;2.45;;;;;;;16.42;55.83;102163.06;4954381;28;20039;-76
2022/05/28 10:25:30;;;;;;;12.70;2.20;;;;;;;16.47;55.38;102157.03;4954181;28;20080;-76
2022/05/28 10:27:56;;;;;;;8.90;2.40;;;;;;;16.60;53.11;102152.03;4954429;28;20035;-76
2022/05/28 10:30:42;;;;;;;9.40;2.10;;;;;;;16.69;55.55;102155.72;4954750;28;20027;-75
2022/05/28 10:33:12;;;;;;;10.10;2.40;;;;;;;16.68;52.56;102150.41;4954034;28;20051;-75
2022/05/28 10:35:39;;;;;;;9.27;2.38;;;;;;;16.63;51.10;102154.72;4951657;28;20035;-76
2022/05/28 10:38:15;;;;;;;9.57;2.30;;;;;;;16.66;52.79;102152.16;4953172;28;20023;-75
2022/05/28 10:40:53;;;;;;;10.45;2.63;;;;;;;16.75;52.26;102154.06;4950943;28;20065;-76
2022/05/28 10:43:23;;;;;;;9.63;2.53;;;;;;;16.82;52.10;102154.22;4953967;28;20033;-75
2022/05/28 10:45:57;;;;;;;10.63;2.50;;;;;;;16.95;51.96;102152.72;4953379;28;20039;-74
2022/05/28 10:48:33;;;;;;;12.00;2.60;;;;;;;17.01;52.23;102141.41;4949944;29;20482;-74
2022/05/28 10:51:19;;;;;;;12.80;2.47;;;;;;;17.12;51.69;102147.75;4952934;28;20033;-76
2022/05/28 10:54:02;;;;;;;10.50;2.30;;;;;;;17.21;50.58;102147.91;4950444;28;20034;-75
2022/05/28 10:56:37;;;;;;;9.15;2.25;;;;;;;17.29;50.85;102144.53;4953685;28;20031;-76
2022/05/28 10:59:17;;;;;;;9.60;2.05;;;;;;;17.30;50.94;102146.31;4953832;28;20040;-74
2022/05/28 11:02:13;;;;;;;9.63;2.17;;;;;;;17.31;48.96;102145.44;4948426;28;20039;-74
2022/05/28 11:04:58;;;;;;;6.45;1.80;;;;;;;17.38;48.82;102152.59;4949312;29;20035;-75
2022/05/28 11:07:38;;;;;;;8.57;2.00;;;;;;;17.42;50.02;102145.63;4943071;29;20045;-75
2022/05/28 11:10:20;;;;;;;12.15;2.30;;;;;;;17.47;47.26;102143.94;4953044;28;20041;-74
2022/05/28 11:12:57;;;;;;;10.20;2.28;;;;;;;17.57;50.28;102143.22;4953511;28;20020;-75
2022/05/28 11:15:41;;;;;;;15.30;2.40;;;;;;;17.63;49.28;102138.03;4949315;28;20038;-74
2022/05/28 11:18:34;;;;;;;7.20;2.47;;;;;;;17.73;51.63;102141.72;4947733;28;20553;-75
2022/05/28 11:21:17;;;;;;;11.07;2.25;;;;;;;17.68;48.98;102148.66;4951799;28;20034;-75
2022/05/28 11:24:20;;;;;;;7.97;2.20;;;;;;;17.54;47.19;102141.44;4950120;28;20403;-74
2022/05/28 11:27:29;;;;;;;10.82;2.50;;;;;;;17.56;48.68;102144.09;4952774;28;20038;-75
2022/05/28 11:30:13;;;;;;;10.00;1.90;;;;;;;17.59;47.46;102128.31;4950326;28;20030;-74
2022/05/28 11:32:42;;;;;;;11.45;2.17;;;;;;;17.58;47.69;102130.94;4946638;28;20078;-75
2022/05/28 11:35:25;;;;;;;8.50;2.47;;;;;;;17.56;48.13;102123.00;4939392;28;20019;-74
2022/05/28 11:38:08;;;;;;;10.45;2.10;;;;;;;17.50;49.77;102125.56;4952619;28;20035;-75